Pollock, Idaho
Current Conditions -  °F | °C
As of 2:51 AM on Tuesday 21 Oct 2014 (Local Time) from KMYL Reporting Station
Overcast Overcast  
Wind Chill: 45°   Ceiling: 6000
Heat Index: 48°   Visibility: 10mi
Dew Point: 40°   Wind: 7mph
Humidity: 74%   Direction: 280°W
Pressure: 29.84"   Gusts: NA
Location:  45.31°N, 116.36°W
Report Text: KMYL 210851Z AUTO 28006KT 10SM OVC060 09/04 A2984 RMK AO2 RAB10E35 SLP073 P0000 60000 T00890044 53025
Loading
Personal Weather Stations






























Interactive Weather Map
Tropical Storm Tracking
New forecast layout! Learn more

10-Day Weather Forecast

Advertisements
Track Severe Weather on mobile